Time;durP1;ratioP1;P1;durP2;ratioP2;P2;SDS_P1;SDS_P2;PMS_P1;PMS_P2;Temp;Humidity;BMP_temperature;BMP_pressure;BME280_temperature;BME280_humidity;BME280_pressure;Samples;Min_cycle;Max_cycle;Signal;HPM_P1;HPM_P2
2022/09/30 05:47:50;;;;;;;;;19.75;18.50;;;;;7.66;87.75;100898.38;5194908;23;49993;-73
2022/09/30 05:50:16;;;;;;;;;26.25;23.50;;;;;8.03;87.97;100968.47;4928140;28;49735;-73
2022/09/30 05:52:41;;;;;;;;;23.25;23.00;;;;;8.05;87.89;100969.41;4933161;28;49722;-73
2022/09/30 05:55:07;;;;;;;;;24.75;23.50;;;;;7.82;88.52;100929.44;4933531;28;49639;-73
2022/09/30 05:57:33;;;;;;;;;23.00;22.00;;;;;8.00;87.92;100960.50;4932798;28;49853;-75
2022/09/30 05:59:58;;;;;;;;;23.25;22.25;;;;;7.45;87.78;100888.06;4933047;28;49921;-75
2022/09/30 06:02:23;;;;;;;;;24.00;22.25;;;;;7.59;87.59;100914.66;4934923;28;49817;-76
2022/09/30 06:04:49;;;;;;;;;27.50;22.50;;;;;7.60;88.09;100908.59;4932992;28;50112;-73
2022/09/30 06:07:15;;;;;;;;;18.00;18.00;;;;;8.03;87.17;100994.63;4941708;28;49774;-73
2022/09/30 06:09:44;;;;;;;;;21.50;21.50;;;;;8.08;87.56;101013.97;4944148;28;50105;-79
2022/09/30 06:12:10;;;;;;;;;20.00;18.75;;;;;7.95;87.71;100986.50;4950227;28;49738;-74
2022/09/30 06:14:36;;;;;;;;;23.00;18.75;;;;;7.23;87.01;100870.72;4948386;28;49450;-77
2022/09/30 06:17:01;;;;;;;;;14.75;14.25;;;;;7.89;87.33;100995.84;4949025;28;49651;-73
2022/09/30 06:19:27;;;;;;;;;23.00;22.25;;;;;7.32;87.35;100888.44;4949387;28;49584;-76
2022/09/30 06:21:53;;;;;;;;;20.00;19.25;;;;;7.85;87.24;100979.19;4944620;28;49638;-76
2022/09/30 06:24:18;;;;;;;;;18.25;17.50;;;;;7.57;86.92;100934.63;4946445;28;49874;-77
2022/09/30 06:26:44;;;;;;;;;22.00;18.25;;;;;7.49;87.44;100946.50;4943098;28;50529;-73
2022/09/30 06:29:09;;;;;;;;;21.25;21.25;;;;;6.85;87.10;100820.66;4950309;28;50546;-78
2022/09/30 06:31:34;;;;;;;;;25.25;22.75;;;;;6.81;86.95;100815.25;4949267;28;49320;-71
2022/09/30 06:34:00;;;;;;;;;23.75;22.25;;;;;7.97;86.91;101020.53;4949124;28;49304;-74
2022/09/30 06:36:27;;;;;;;;;29.25;28.00;;;;;8.01;87.49;101007.66;4948362;28;49438;-79
2022/09/30 06:38:54;;;;;;;;;36.75;29.00;;;;;7.64;87.07;100929.69;4941156;28;49872;-77
2022/09/30 06:41:20;;;;;;;;;24.25;19.50;;;;;8.15;86.86;101017.69;4941749;28;49657;-71
2022/09/30 06:43:45;;;;;;;;;31.00;27.75;;;;;7.67;86.93;100931.50;4932591;28;49980;-73
2022/09/30 06:46:13;;;;;;;;;34.25;31.25;;;;;8.37;88.22;101051.63;4931753;28;49852;-71
2022/09/30 06:48:39;;;;;;;;;30.75;28.00;;;;;8.27;88.23;101023.34;4932539;28;49742;-73
2022/09/30 06:51:08;;;;;;;;;39.50;34.25;;;;;8.09;87.66;100980.84;4926353;28;49741;-72
2022/09/30 06:53:35;;;;;;;;;31.00;29.00;;;;;8.41;87.69;101032.59;4932801;28;49955;-76
2022/09/30 06:56:02;;;;;;;;;32.50;31.50;;;;;8.52;88.56;101038.19;4926450;28;50980;-71
2022/09/30 06:58:27;;;;;;;;;35.00;33.00;;;;;8.25;88.03;100983.16;4935834;28;49645;-74
2022/09/30 07:00:57;;;;;;;;;29.25;27.50;;;;;8.20;87.77;100963.81;4942503;28;49717;-74
2022/09/30 07:03:27;;;;;;;;;29.00;28.50;;;;;8.73;87.98;101062.44;4932027;28;50002;-74
2022/09/30 07:05:57;;;;;;;;;25.00;23.00;;;;;8.15;87.47;100953.19;4932024;28;50882;-72
2022/09/30 07:08:24;;;;;;;;;31.25;27.75;;;;;8.84;87.13;101034.88;4926194;28;49655;-74
2022/09/30 07:10:50;;;;;;;;;32.50;30.75;;;;;8.84;87.57;101026.13;4926048;28;49845;-75
2022/09/30 07:13:15;;;;;;;;;30.00;30.00;;;;;8.89;86.71;101022.84;4932340;28;49790;-74
2022/09/30 07:15:41;;;;;;;;;32.25;28.00;;;;;8.93;86.27;101020.31;4931682;28;51210;-75
2022/09/30 07:18:07;;;;;;;;;36.25;30.50;;;;;8.57;85.68;100951.13;4931920;28;49698;-73
2022/09/30 07:20:32;;;;;;;;;30.50;30.50;;;;;7.98;86.42;100855.91;4932018;28;49905;-74
2022/09/30 07:22:58;;;;;;;;;39.50;34.00;;;;;8.39;86.06;100923.47;4932117;28;49731;-74
2022/09/30 07:25:24;;;;;;;;;35.25;30.75;;;;;9.04;85.93;101018.91;4931739;28;50788;-74
2022/09/30 07:27:50;;;;;;;;;33.50;29.75;;;;;9.25;86.61;101045.75;4932118;28;49910;-74
2022/09/30 07:30:15;;;;;;;;;33.25;33.25;;;;;9.15;86.48;101022.72;4930772;28;49774;-75
2022/09/30 07:32:42;;;;;;;;;32.75;28.50;;;;;9.36;86.32;101046.06;4935788;28;49926;-73
2022/09/30 07:35:07;;;;;;;;;34.50;30.50;;;;;9.25;86.02;101016.94;4931888;28;49977;-73
2022/09/30 07:37:34;;;;;;;;;36.50;34.75;;;;;9.44;86.12;101028.84;4931628;28;49755;-72
2022/09/30 07:40:01;;;;;;;;;27.50;25.00;;;;;9.41;85.62;101026.16;4931737;28;49953;-71
2022/09/30 07:42:27;;;;;;;;;28.75;28.75;;;;;8.94;85.80;100947.03;4931876;28;49799;-72
2022/09/30 07:44:54;;;;;;;;;37.50;33.50;;;;;8.48;84.21;100850.50;4931687;28;50072;-73
2022/09/30 07:47:20;;;;;;;;;35.75;33.75;;;;;9.56;85.02;101015.25;4931361;28;49788;-74
2022/09/30 07:49:46;;;;;;;;;29.50;26.25;;;;;9.61;84.25;101026.72;4931714;28;49798;-73
2022/09/30 07:52:12;;;;;;;;;31.50;29.50;;;;;9.72;84.53;101031.44;4931901;28;49896;-74
2022/09/30 07:54:39;;;;;;;;;34.75;31.50;;;;;9.61;84.22;101004.03;4931176;28;49797;-74
2022/09/30 07:57:05;;;;;;;;;30.75;28.00;;;;;10.02;84.69;101065.47;4931579;28;49732;-72
2022/09/30 07:59:33;;;;;;;;;38.50;33.00;;;;;9.79;84.42;101010.63;4931567;28;49754;-74
2022/09/30 08:01:59;;;;;;;;;36.25;32.75;;;;;9.48;83.63;100941.63;4931603;28;49869;-72
2022/09/30 08:04:26;;;;;;;;;26.50;25.25;;;;;10.20;83.28;101052.00;4931589;28;49846;-73
2022/09/30 08:06:55;;;;;;;;;34.00;32.50;;;;;9.99;83.68;101026.06;4931551;28;49901;-77
2022/09/30 08:09:22;;;;;;;;;29.00;27.50;;;;;10.09;83.12;101024.59;4931689;28;50029;-71
2022/09/30 08:11:48;;;;;;;;;36.00;32.75;;;;;9.94;82.80;100993.59;4931723;28;49962;-74
2022/09/30 08:14:16;;;;;;;;;29.50;28.00;;;;;10.50;82.53;101064.16;4931200;28;50137;-71
2022/09/30 08:16:41;;;;;;;;;32.00;28.00;;;;;10.13;82.16;100986.19;4931192;28;50031;-70
2022/09/30 08:19:12;;;;;;;;;32.00;31.00;;;;;10.24;82.52;100992.66;4925108;28;50001;-72
2022/09/30 08:21:38;;;;;;;;;31.25;30.75;;;;;10.62;82.30;101046.13;4931752;28;50074;-73
2022/09/30 08:24:03;;;;;;;;;27.00;25.75;;;;;10.75;81.85;101047.31;4930034;28;51522;-75
2022/09/30 08:26:29;;;;;;;;;30.00;29.25;;;;;10.82;81.54;101049.25;4931429;28;49778;-72
2022/09/30 08:28:54;;;;;;;;;34.25;32.00;;;;;10.74;81.55;101035.03;4931390;28;49950;-74
2022/09/30 08:31:22;;;;;;;;;31.25;30.75;;;;;10.83;81.04;101033.53;4931125;28;49750;-74
2022/09/30 08:33:48;;;;;;;;;29.00;27.25;;;;;10.26;80.75;100928.00;4930987;28;50534;-71
2022/09/30 08:36:22;;;;;;;;;31.75;29.25;;;;;10.09;79.60;100888.19;4937005;28;49796;-72
2022/09/30 08:38:48;;;;;;;;;30.25;28.75;;;;;10.08;80.13;100870.69;4930252;28;49635;-73
2022/09/30 08:41:37;;;;;;;;;37.75;30.50;;;;;11.01;79.57;101037.44;4932814;28;50091;-74
2022/09/30 08:44:31;;;;;;;;;38.25;32.00;;;;;11.31;79.94;101053.91;4934482;28;50931;-71
2022/09/30 08:47:30;;;;;;;;;30.50;25.50;;;;;11.39;79.32;101046.19;4933866;28;49925;-75
2022/09/30 08:50:32;;;;;;;;;25.75;22.75;;;;;11.48;78.73;101054.25;4934290;28;50283;-74
2022/09/30 08:53:04;;;;;;;;;25.75;25.50;;;;;10.73;78.58;100922.97;4934393;28;49759;-71
2022/09/30 08:55:40;;;;;;;;;27.50;24.00;;;;;11.16;77.06;100972.97;4934116;28;49726;-73
2022/09/30 08:58:17;;;;;;;;;30.25;25.25;;;;;11.69;76.83;101057.38;4934283;28;49902;-69
2022/09/30 09:00:43;;;;;;;;;29.50;25.25;;;;;11.72;77.45;101046.91;4934055;28;49655;-74
2022/09/30 09:03:11;;;;;;;;;36.00;28.25;;;;;11.72;77.01;101044.28;4934379;28;50155;-75
2022/09/30 09:05:59;;;;;;;;;35.50;31.25;;;;;11.95;76.83;101060.53;4933693;28;50562;-72
2022/09/30 09:08:28;;;;;;;;;31.25;26.25;;;;;12.03;77.34;101053.69;4930830;28;50433;-74
2022/09/30 09:11:22;;;;;;;;;25.75;25.75;;;;;11.90;76.47;101020.13;4932679;28;49726;-72
2022/09/30 09:14:01;;;;;;;;;38.25;30.75;;;;;12.14;75.18;101051.25;4934299;28;50041;-72
2022/09/30 09:16:44;;;;;;;;;33.25;31.75;;;;;11.65;74.31;100960.84;4933516;28;49788;-71
2022/09/30 09:19:13;;;;;;;;;31.25;29.50;;;;;11.90;74.79;101001.69;4933973;28;50081;-74
2022/09/30 09:22:01;;;;;;;;;33.75;33.50;;;;;12.47;73.80;101072.06;4933955;28;49857;-71
2022/09/30 09:24:30;;;;;;;;;34.50;30.00;;;;;12.35;73.02;101028.81;4933973;28;50025;-74
2022/09/30 09:27:00;;;;;;;;;29.75;26.50;;;;;12.63;74.37;101072.31;4933515;28;50790;-79
2022/09/30 09:29:25;;;;;;;;;32.00;27.50;;;;;12.69;73.85;101054.88;4932150;28;50089;-81
2022/09/30 09:31:52;;;;;;;;;27.75;26.25;;;;;12.28;72.87;100975.19;4933478;28;49994;-73
2022/09/30 09:34:18;;;;;;;;;29.50;29.50;;;;;12.70;71.73;101053.13;4933724;28;49697;-71
2022/09/30 09:36:43;;;;;;;;;26.25;25.00;;;;;12.69;71.40;101039.09;4938926;28;57383;-74
2022/09/30 09:39:33;;;;;;;;;32.50;29.50;;;;;12.97;71.10;101072.03;4933600;28;50027;-75
2022/09/30 09:42:10;;;;;;;;;24.75;23.50;;;;;11.83;70.96;100878.78;4933585;28;49790;-74
2022/09/30 09:44:57;;;;;;;;;29.25;27.00;;;;;13.10;71.64;101071.34;4933443;28;49930;-74
2022/09/30 09:47:23;;;;;;;;;33.00;29.00;;;;;13.13;71.72;101076.69;4932996;28;50455;-74
2022/09/30 09:49:57;;;;;;;;;24.75;23.75;;;;;12.66;71.25;100991.63;4932176;28;50085;-74
2022/09/30 09:52:58;;;;;;;;;28.50;27.75;;;;;13.29;71.74;101071.66;4931263;28;49816;-74
2022/09/30 09:55:31;;;;;;;;;23.50;23.50;;;;;13.32;68.69;101077.88;4933690;28;49933;-75
2022/09/30 09:58:09;;;;;;;;;19.00;19.00;;;;;13.37;70.35;101072.66;4933070;28;50879;-72
2022/09/30 10:03:18;;;;;;;;;22.75;20.25;;;;;13.51;69.17;101062.28;4933004;28;49948;-71
2022/09/30 10:05:46;;;;;;;;;24.00;24.00;;;;;12.60;69.28;100899.34;4933373;28;50220;-69
2022/09/30 10:08:18;;;;;;;;;21.50;20.25;;;;;13.45;70.33;101042.03;4932830;28;50413;-69
2022/09/30 10:10:56;;;;;;;;;21.00;21.00;;;;;13.42;70.43;101027.06;4933585;28;49798;-72
2022/09/30 10:13:24;;;;;;;;;19.25;17.00;;;;;13.67;69.45;101070.44;4933349;28;49837;-70
2022/09/30 10:15:59;;;;;;;;;22.50;20.75;;;;;13.67;66.70;101059.88;4932923;28;49975;-72
2022/09/30 10:18:31;;;;;;;;;19.50;18.25;;;;;13.27;66.61;100978.50;4932730;28;49977;-73
2022/09/30 10:21:00;;;;;;;;;21.50;18.50;;;;;13.90;65.67;101076.03;4927008;28;49984;-69
2022/09/30 10:23:30;;;;;;;;;18.00;18.00;;;;;13.99;66.69;101075.22;4932861;28;49982;-72
2022/09/30 10:25:59;;;;;;;;;16.00;14.00;;;;;14.06;65.91;101068.28;4933598;28;49865;-71
2022/09/30 10:28:28;;;;;;;;;21.50;20.50;;;;;13.71;66.28;100995.75;4932533;28;49791;-72
2022/09/30 10:30:57;;;;;;;;;17.50;17.50;;;;;14.14;66.12;101056.06;4932779;28;49671;-71
2022/09/30 10:33:29;;;;;;;;;18.50;14.50;;;;;14.19;66.23;101057.88;4932990;28;49897;-70
2022/09/30 10:36:01;;;;;;;;;15.50;14.50;;;;;13.88;64.31;100989.78;4932996;28;49822;-70
2022/09/30 10:38:28;;;;;;;;;14.00;14.00;;;;;13.63;64.14;100942.03;4932521;28;50693;-72
2022/09/30 10:40:54;;;;;;;;;15.75;15.75;;;;;14.13;64.47;101018.22;4932912;28;50045;-70
2022/09/30 10:43:29;;;;;;;;;19.75;16.75;;;;;14.14;62.47;101012.06;4932538;28;49802;-70
2022/09/30 10:45:55;;;;;;;;;24.00;22.25;;;;;14.07;63.36;101007.56;4932715;28;49922;-71
2022/09/30 10:48:23;;;;;;;;;11.50;11.50;;;;;14.50;63.10;101063.50;4932638;28;50293;-72
2022/09/30 10:50:51;;;;;;;;;14.25;12.50;;;;;14.35;63.15;101014.00;4932291;28;49774;-72
2022/09/30 10:53:23;;;;;;;;;11.50;11.00;;;;;14.51;61.35;101023.00;4932544;28;49866;-72
2022/09/30 10:55:50;;;;;;;;;7.75;6.50;;;;;14.92;60.22;101046.25;4932512;28;49843;-69
2022/09/30 10:58:28;;;;;;;;;5.75;4.75;;;;;14.99;58.79;101050.72;4932130;28;50628;-70
2022/09/30 11:01:19;;;;;;;;;7.00;7.00;;;;;14.93;58.54;101032.16;4930870;28;49857;-71
2022/09/30 11:03:52;;;;;;;;;5.50;5.50;;;;;14.06;56.19;100894.06;4932659;28;50066;-72
2022/09/30 11:06:20;;;;;;;;;4.25;4.25;;;;;15.04;57.58;101056.91;4932679;28;50571;-71
2022/09/30 11:09:02;;;;;;;;;7.25;5.25;;;;;15.08;56.03;101056.94;4932369;28;50406;-70
2022/09/30 11:11:53;;;;;;;;;6.25;5.00;;;;;14.96;55.22;101032.16;4932290;28;49930;-72
2022/09/30 11:14:30;;;;;;;;;4.75;4.75;;;;;15.13;56.48;101046.38;4931745;28;49601;-69
2022/09/30 11:17:09;;;;;;;;;6.50;6.50;;;;;15.20;56.05;101060.53;4932530;28;49870;-70
2022/09/30 11:20:10;;;;;;;;;6.00;4.00;;;;;14.96;54.50;101000.44;4931976;28;50612;-69
2022/09/30 11:22:41;;;;;;;;;4.75;4.75;;;;;15.23;53.80;101050.84;4923528;28;49885;-69
2022/09/30 11:25:23;;;;;;;;;4.50;4.00;;;;;14.36;54.95;100898.69;4932498;28;49737;-71
2022/09/30 11:28:02;;;;;;;;;5.00;5.00;;;;;15.39;55.23;101051.84;4927932;28;49929;-71
2022/09/30 11:30:42;;;;;;;;;5.00;5.00;;;;;15.39;54.02;101031.56;4928018;28;50230;-69
2022/09/30 11:33:29;;;;;;;;;5.00;5.00;;;;;15.59;53.97;101054.59;4940425;28;49813;-69
2022/09/30 11:35:57;;;;;;;;;5.25;4.25;;;;;15.69;54.12;101051.16;4945582;28;49622;-73
2022/09/30 11:38:58;;;;;;;;;5.75;5.50;;;;;15.48;53.39;101041.31;4946959;28;49365;-71
2022/09/30 11:41:52;;;;;;;;;3.00;3.00;;;;;15.65;54.00;101049.38;4946017;28;50516;-69
2022/09/30 11:44:45;;;;;;;;;5.25;4.00;;;;;15.62;53.25;101041.41;4942887;28;49683;-71
2022/09/30 11:47:38;;;;;;;;;4.75;3.75;;;;;15.71;52.45;101044.97;4942632;28;50014;-71
2022/09/30 11:50:06;;;;;;;;;6.50;6.50;;;;;15.78;52.41;101050.31;4939271;28;49359;-71
2022/09/30 11:52:50;;;;;;;;;5.75;5.25;;;;;15.93;52.12;101038.03;4941168;28;49870;-71
2022/09/30 11:55:22;;;;;;;;;8.00;5.25;;;;;16.00;52.52;101039.78;4940658;28;49695;-75
2022/09/30 11:58:04;;;;;;;;;4.25;4.25;;;;;16.06;52.11;101022.16;4948706;28;49426;-72
2022/09/30 12:00:32;;;;;;;;;4.50;4.50;;;;;16.12;50.90;101015.13;4931766;28;50196;-73
2022/09/30 12:03:09;;;;;;;;;7.50;7.50;;;;;15.62;50.23;100931.16;4926268;28;49839;-70
2022/09/30 12:05:46;;;;;;;;;4.25;4.25;;;;;16.24;51.63;101008.97;4932555;28;49675;-77
2022/09/30 12:08:28;;;;;;;;;4.00;4.00;;;;;16.36;53.38;101022.22;4938060;28;49851;-73
2022/09/30 12:11:01;;;;;;;;;3.25;3.25;;;;;15.41;52.35;100855.22;4932088;28;50040;-75
2022/09/30 12:13:35;;;;;;;;;4.00;4.00;;;;;16.19;52.49;100950.66;4932195;28;51422;-73
2022/09/30 12:16:13;;;;;;;;;5.00;5.00;;;;;16.14;51.73;100920.66;4940863;28;50053;-80
2022/09/30 12:18:49;;;;;;;;;4.75;3.75;;;;;16.31;50.47;100932.16;4935541;28;49697;-85
2022/09/30 12:21:17;;;;;;;;;1.50;1.50;;;;;16.98;50.15;101012.50;4931647;28;49994;-75
2022/09/30 12:23:47;;;;;;;;;3.00;2.50;;;;;16.89;49.37;100978.97;4931653;28;52813;-76
2022/09/30 12:26:15;;;;;;;;;3.25;3.25;;;;;16.74;49.25;100936.56;4933704;28;49829;-81
2022/09/30 12:33:00;;;;;;;;;3.75;3.75;;;;;16.95;49.13;100978.94;4934574;28;49981;-75
2022/09/30 12:35:28;;;;;;;;;3.50;3.50;;;;;17.05;49.55;100980.69;4912048;28;50991;-75
2022/09/30 12:38:19;;;;;;;;;3.00;3.00;;;;;16.52;50.01;100910.06;4917975;28;49707;-75
2022/09/30 12:40:54;;;;;;;;;2.00;2.00;;;;;16.98;48.72;100973.63;4929568;28;49815;-80
2022/09/30 12:43:48;;;;;;;;;2.25;2.25;;;;;17.09;47.67;100987.75;4931846;28;50136;-75
2022/09/30 12:46:40;;;;;;;;;3.00;2.50;;;;;17.12;47.44;100986.88;4933249;28;49857;-76
2022/09/30 12:49:16;;;;;;;;;5.25;2.00;;;;;16.95;48.96;100941.81;4928380;28;49690;-73
2022/09/30 12:51:43;;;;;;;;;2.00;2.00;;;;;17.22;48.71;100971.81;4934045;28;50030;-77
2022/09/30 12:54:27;;;;;;;;;3.00;3.00;;;;;17.38;48.80;100981.50;4933051;28;49997;-74
2022/09/30 12:56:59;;;;;;;;;2.25;2.25;;;;;17.19;48.58;100934.69;4931915;28;50159;-72
2022/09/30 12:59:28;;;;;;;;;2.00;1.75;;;;;17.47;47.87;100965.53;4934441;28;50044;-75
2022/09/30 13:01:56;;;;;;;;;1.75;1.75;;;;;17.40;47.21;100962.00;4931424;28;49774;-76
2022/09/30 13:04:32;;;;;;;;;1.00;1.00;;;;;17.53;45.56;100961.97;4934209;28;49691;-72
2022/09/30 13:06:57;;;;;;;;;2.00;2.00;;;;;17.63;47.12;100958.38;4931954;28;52745;-74
2022/09/30 13:09:32;;;;;;;;;2.00;2.00;;;;;17.77;45.57;100963.66;4934422;28;50042;-73
2022/09/30 13:11:58;;;;;;;;;2.25;1.25;;;;;17.83;46.06;100959.16;4936037;28;49769;-76
2022/09/30 13:14:29;;;;;;;;;3.00;3.00;;;;;17.88;46.36;100960.03;4937943;28;50037;-77
2022/09/30 13:17:22;;;;;;;;;2.00;2.00;;;;;17.05;46.44;100802.97;4930643;28;49975;-75
2022/09/30 13:19:53;;;;;;;;;3.00;3.00;;;;;17.95;46.41;100950.25;4933534;28;50355;-72
2022/09/30 13:22:19;;;;;;;;;3.00;3.00;;;;;18.00;46.39;100938.72;4936843;28;49888;-76
2022/09/30 13:24:59;;;;;;;;;2.75;2.75;;;;;18.09;46.27;100936.88;4933332;28;49830;-78
2022/09/30 13:27:46;;;;;;;;;3.00;3.00;;;;;18.19;47.08;100933.25;4931769;28;49948;-75
2022/09/30 13:30:14;;;;;;;;;3.00;3.00;;;;;18.28;45.93;100936.72;4929032;28;49713;-78
2022/09/30 13:33:01;;;;;;;;;1.75;1.75;;;;;18.39;44.59;100933.09;4930017;28;49711;-81
2022/09/30 13:35:45;;;;;;;;;2.00;2.00;;;;;18.46;44.20;100941.00;4922613;28;49934;-80
2022/09/30 13:38:13;;;;;;;;;1.50;1.50;;;;;18.50;43.74;100926.78;4933976;28;50959;-81
2022/09/30 13:41:00;;;;;;;;;2.00;2.00;;;;;18.53;43.78;100932.09;4945128;28;49798;-78
2022/09/30 13:43:33;;;;;;;;;1.75;1.75;;;;;18.33;43.90;100891.50;4930307;28;49597;-79
2022/09/30 13:46:10;;;;;;;;;3.00;3.00;;;;;18.42;44.41;100904.69;4934562;28;49821;-76
2022/09/30 13:48:40;;;;;;;;;1.00;1.00;;;;;18.35;44.60;100886.19;4938621;28;50112;-68
2022/09/30 13:51:11;;;;;;;;;3.00;3.00;;;;;18.35;44.45;100887.06;4930505;28;49775;-71
2022/09/30 13:53:46;;;;;;;;;3.00;3.00;;;;;18.72;44.59;100945.22;4932390;28;50091;-73
2022/09/30 13:56:21;;;;;;;;;2.75;2.00;;;;;18.62;44.59;100920.47;4934388;28;49618;-73
2022/09/30 13:58:52;;;;;;;;;5.00;3.00;;;;;18.78;43.60;100921.25;4932615;28;50904;-71
2022/09/30 14:01:34;;;;;;;;;2.00;2.00;;;;;18.74;43.67;100900.91;4941273;28;50106;-72
2022/09/30 14:04:08;;;;;;;;;4.00;2.75;;;;;19.01;44.55;100919.22;4941500;28;49828;-71
2022/09/30 14:07:02;;;;;;;;;2.50;2.50;;;;;19.05;44.26;100923.59;4945756;28;50024;-69
2022/09/30 14:10:06;;;;;;;;;2.00;2.00;;;;;19.09;44.71;100921.78;4933621;28;49867;-71
2022/09/30 14:12:50;;;;;;;;;1.00;1.00;;;;;19.06;43.52;100913.84;4928977;28;49787;-73
2022/09/30 14:15:30;;;;;;;;;2.00;2.00;;;;;19.06;44.06;100911.19;4932369;28;49219;-71
2022/09/30 14:18:10;;;;;;;;;2.00;1.00;;;;;19.06;43.10;100906.75;4936000;28;50056;-71
2022/09/30 14:20:58;;;;;;;;;2.00;2.00;;;;;19.10;43.13;100907.56;4929459;28;51088;-72
2022/09/30 14:23:23;;;;;;;;;1.75;1.75;;;;;19.06;42.54;100913.84;4930895;28;49949;-73
2022/09/30 14:25:59;;;;;;;;;1.00;1.00;;;;;19.11;42.90;100922.66;4931014;28;49925;-68
2022/09/30 14:28:39;;;;;;;;;1.50;1.50;;;;;18.24;42.59;100762.28;4931817;28;50029;-70
2022/09/30 14:31:08;;;;;;;;;1.50;1.50;;;;;18.41;42.71;100798.41;4930043;28;49860;-79
2022/09/30 14:33:35;;;;;;;;;2.50;2.00;;;;;18.55;42.87;100839.91;4936356;28;50201;-72
2022/09/30 14:36:05;;;;;;;;;1.25;1.25;;;;;17.99;43.80;100753.66;4931495;28;50086;-71
2022/09/30 14:38:32;;;;;;;;;2.00;2.00;;;;;18.27;43.49;100809.19;4931072;28;49966;-72
2022/09/30 14:41:06;;;;;;;;;2.25;2.00;;;;;18.68;43.27;100899.19;4930417;28;52325;-76
2022/09/30 14:43:41;;;;;;;;;2.00;2.00;;;;;17.89;43.38;100781.22;4932183;28;49717;-76
2022/09/30 14:46:19;;;;;;;;;3.00;3.00;;;;;17.73;43.06;100745.06;4932694;28;49758;-78
2022/09/30 14:48:49;;;;;;;;;3.00;3.00;;;;;18.42;43.48;100862.19;4932719;28;49792;-81
2022/09/30 14:51:17;;;;;;;;;2.75;2.75;;;;;18.71;44.55;100924.84;4930493;28;51003;-76
2022/09/30 14:53:54;;;;;;;;;3.50;2.00;;;;;18.80;43.22;100932.75;4931525;28;50171;-76
2022/09/30 14:56:32;;;;;;;;;3.75;2.50;;;;;17.72;43.07;100745.94;4936866;28;50194;-73
2022/09/30 14:58:58;;;;;;;;;1.75;1.75;;;;;17.93;43.32;100782.06;4936449;28;49921;-77
2022/09/30 15:01:29;;;;;;;;;2.00;2.00;;;;;18.12;43.76;100836.78;4932695;28;50123;-73
2022/09/30 15:04:01;;;;;;;;;2.50;2.50;;;;;17.55;43.91;100753.13;4932939;28;49647;-74
2022/09/30 15:06:35;;;;;;;;;7.00;4.75;;;;;17.87;44.52;100844.09;4927639;28;49794;-74
2022/09/30 15:09:14;;;;;;;;;1.00;1.00;;;;;17.95;44.63;100852.88;4936106;28;49606;-71
2022/09/30 15:11:40;;;;;;;;;1.25;1.25;;;;;18.39;44.51;100949.94;4932189;28;49801;-72
2022/09/30 15:14:25;;;;;;;;;3.25;2.00;;;;;18.31;44.94;100942.00;4932827;28;49695;-73
2022/09/30 15:16:54;;;;;;;;;1.00;1.00;;;;;17.65;44.58;100845.97;4932708;28;49820;-76
2022/09/30 15:19:25;;;;;;;;;1.00;1.00;;;;;18.30;44.73;100936.72;4933322;28;49865;-78
2022/09/30 15:21:53;;;;;;;;;3.50;2.75;;;;;17.67;44.57;100830.94;4932262;28;49946;-77
2022/09/30 15:24:24;;;;;;;;;3.00;2.00;;;;;17.74;44.69;100837.09;4932513;28;50023;-72
2022/09/30 15:26:52;;;;;;;;;2.75;2.00;;;;;17.76;44.52;100863.63;4935078;28;49844;-83
2022/09/30 15:29:18;;;;;;;;;3.00;1.00;;;;;18.19;44.53;100928.81;4932172;28;49798;-84
2022/09/30 15:31:47;;;;;;;;;1.00;1.00;;;;;17.17;44.68;100764.88;4933248;28;50398;-76
2022/09/30 15:34:17;;;;;;;;;3.25;2.00;;;;;18.21;44.62;100937.66;4933537;28;49811;-78
2022/09/30 15:36:46;;;;;;;;;2.00;2.00;;;;;18.05;45.08;100911.22;4938779;28;49836;-78
2022/09/30 15:42:43;;;;;;;;;3.25;2.00;;;;;18.15;45.41;100927.09;4932160;28;50595;-75
2022/09/30 15:45:30;;;;;;;;;1.25;1.25;;;;;17.71;45.39;100847.72;4932008;28;49891;-74
2022/09/30 15:48:03;;;;;;;;;1.00;1.00;;;;;17.98;45.63;100897.13;4931872;28;50190;-75
2022/09/30 15:50:36;;;;;;;;;1.75;1.75;;;;;18.13;45.64;100926.22;4932435;28;49663;-75
2022/09/30 15:53:04;;;;;;;;;1.50;1.50;;;;;17.31;45.51;100801.97;4932820;28;52598;-75
2022/09/30 15:55:37;;;;;;;;;1.50;1.50;;;;;17.73;45.47;100873.38;4934985;28;49694;-75
2022/09/30 15:58:04;;;;;;;;;4.00;3.00;;;;;17.29;44.92;100801.97;4934487;28;49915;-75
2022/09/30 16:00:34;;;;;;;;;3.00;2.00;;;;;18.06;45.73;100948.41;4933448;28;49725;-76
2022/09/30 16:03:23;;;;;;;;;3.00;3.00;;;;;17.65;45.75;100869.84;4934621;28;50593;-76
2022/09/30 16:05:48;;;;;;;;;2.00;2.00;;;;;17.44;45.64;100823.09;4932188;28;49866;-75
2022/09/30 16:08:22;;;;;;;;;2.00;2.00;;;;;17.96;45.77;100917.50;4934627;28;49962;-76
2022/09/30 16:10:51;;;;;;;;;2.50;2.50;;;;;17.15;46.16;100782.59;4933921;28;49894;-77
2022/09/30 16:13:19;;;;;;;;;2.75;2.75;;;;;17.89;46.35;100932.59;4933370;28;51730;-75
2022/09/30 16:15:47;;;;;;;;;2.75;2.75;;;;;17.54;46.59;100869.03;4934351;28;49845;-76
2022/09/30 16:18:23;;;;;;;;;3.00;3.00;;;;;16.96;46.43;100779.16;4934614;28;49691;-76
2022/09/30 16:21:00;;;;;;;;;3.00;3.00;;;;;17.43;46.91;100884.16;4933872;28;49712;-75
2022/09/30 16:23:33;;;;;;;;;1.50;1.25;;;;;17.29;47.26;100848.84;4934782;28;49903;-75
2022/09/30 16:26:15;;;;;;;;;2.00;2.00;;;;;16.99;47.05;100815.41;4935004;28;49909;-76
2022/09/30 16:28:44;;;;;;;;;2.25;2.25;;;;;16.74;47.12;100783.69;4929129;28;49711;-75
2022/09/30 16:31:10;;;;;;;;;4.00;2.75;;;;;17.25;47.30;100879.81;4934793;28;49675;-76
2022/09/30 16:33:40;;;;;;;;;2.00;2.00;;;;;16.83;47.04;100828.72;4934883;28;50552;-75
2022/09/30 16:36:07;;;;;;;;;4.25;3.00;;;;;16.88;47.27;100834.00;4932918;28;49836;-77
2022/09/30 16:38:33;;;;;;;;;2.50;2.00;;;;;17.00;47.29;100868.44;4934258;28;49775;-76
2022/09/30 16:41:02;;;;;;;;;3.00;3.00;;;;;16.79;47.65;100855.22;4934938;28;49809;-77
2022/09/30 16:43:27;;;;;;;;;2.00;2.00;;;;;16.38;47.43;100783.75;4934636;28;50508;-77
2022/09/30 16:45:53;;;;;;;;;1.50;1.50;;;;;16.84;47.79;100891.47;4934504;28;49731;-78
2022/09/30 16:48:20;;;;;;;;;2.50;2.50;;;;;16.12;47.84;100754.72;4934582;28;50168;-72
2022/09/30 16:51:06;;;;;;;;;2.75;2.75;;;;;17.05;47.94;100926.75;4934540;28;49745;-86
2022/09/30 16:53:32;;;;;;;;;3.00;2.00;;;;;16.95;48.49;100920.59;4930358;28;51234;-73
2022/09/30 16:55:58;;;;;;;;;3.00;3.00;;;;;16.37;48.21;100829.69;4932354;28;49908;-69
2022/09/30 16:58:24;;;;;;;;;2.25;2.25;;;;;16.15;48.57;100802.38;4932987;28;49943;-71
2022/09/30 17:00:52;;;;;;;;;2.25;2.25;;;;;16.78;48.51;100906.50;4933254;28;49858;-70
2022/09/30 17:03:19;;;;;;;;;2.00;2.00;;;;;16.63;48.41;100906.50;4933951;28;50907;-67
2022/09/30 17:05:51;;;;;;;;;3.00;3.00;;;;;16.73;48.66;100921.53;4932736;28;49908;-72
2022/09/30 17:08:18;;;;;;;;;3.00;2.50;;;;;16.59;49.33;100901.19;4932961;28;49846;-73
2022/09/30 17:10:46;;;;;;;;;3.00;2.00;;;;;16.09;48.54;100842.97;4945950;28;49537;-72
2022/09/30 17:13:15;;;;;;;;;3.00;2.00;;;;;16.11;49.12;100851.78;4934954;28;50196;-70
2022/09/30 17:15:41;;;;;;;;;3.00;3.00;;;;;16.10;49.51;100852.66;4933850;28;49976;-69
2022/09/30 17:18:08;;;;;;;;;2.75;2.75;;;;;15.40;49.54;100752.03;4934469;28;49746;-72
2022/09/30 17:20:35;;;;;;;;;2.75;2.75;;;;;15.42;49.81;100745.00;4934166;28;50078;-76
2022/09/30 17:23:00;;;;;;;;;3.00;3.00;;;;;15.68;50.44;100804.13;4932568;28;51513;-76
2022/09/30 17:25:26;;;;;;;;;3.75;3.75;;;;;15.90;50.24;100852.66;4933856;28;50263;-74
2022/09/30 17:27:51;;;;;;;;;3.75;3.00;;;;;15.91;50.08;100872.09;4933884;28;49616;-73
2022/09/30 17:30:18;;;;;;;;;4.75;4.00;;;;;16.12;50.32;100908.31;4933832;28;49751;-70
2022/09/30 17:32:44;;;;;;;;;6.75;3.00;;;;;16.07;50.81;100900.34;4933506;28;50584;-70
2022/09/30 17:35:10;;;;;;;;;2.25;2.25;;;;;15.67;50.09;100849.13;4933800;28;49699;-72
2022/09/30 17:37:38;;;;;;;;;6.00;3.25;;;;;16.05;50.84;100907.41;4933700;28;49897;-73
2022/09/30 17:43:06;;;;;;;;;3.50;3.50;;;;;15.52;50.32;100812.03;4934131;28;50407;-69